Time;durP1;ratioP1;P1;durP2;ratioP2;P2;SDS_P1;SDS_P2;PMS_P1;PMS_P2;Temp;Humidity;BMP_temperature;BMP_pressure;BME280_temperature;BME280_humidity;BME280_pressure;Samples;Min_cycle;Max_cycle;Signal;HPM_P1;HPM_P2
2020/12/25 00:01:22;;;;;;;3.20;0.85;;;2.10;99.90;;;;;;5015925;28;20041;-81
2020/12/25 00:03:48;;;;;;;1.02;0.80;;;2.10;99.90;;;;;;5019074;28;20097;-80
2020/12/25 00:06:14;;;;;;;1.23;0.85;;;2.20;99.90;;;;;;5018078;28;20034;-81
2020/12/25 00:08:39;;;;;;;2.67;1.13;;;2.20;99.90;;;;;;5013748;28;20449;-81
2020/12/25 00:11:05;;;;;;;1.50;0.80;;;2.10;99.90;;;;;;5016576;28;20140;-82
2020/12/25 00:13:30;;;;;;;2.97;0.80;;;2.20;99.90;;;;;;5014072;28;20048;-80
2020/12/25 00:15:57;;;;;;;1.73;1.00;;;2.20;99.90;;;;;;5018443;28;20038;-82
2020/12/25 00:18:22;;;;;;;0.85;0.73;;;2.30;99.90;;;;;;5013945;28;20683;-81
2020/12/25 00:20:49;;;;;;;1.38;1.05;;;2.30;99.90;;;;;;5015064;28;20514;-82
2020/12/25 00:23:15;;;;;;;1.60;0.98;;;2.20;99.90;;;;;;5013656;28;20397;-79
2020/12/25 00:25:40;;;;;;;1.52;0.98;;;2.30;99.90;;;;;;5015161;28;20025;-83
2020/12/25 00:28:06;;;;;;;1.58;1.02;;;2.30;99.90;;;;;;5009802;28;21090;-80
2020/12/25 00:30:31;;;;;;;1.33;1.05;;;2.30;99.90;;;;;;5013931;28;20042;-81
2020/12/25 00:32:57;;;;;;;0.90;0.80;;;2.20;99.90;;;;;;5013028;28;20037;-80
2020/12/25 00:35:22;;;;;;;1.20;0.90;;;2.30;99.90;;;;;;5018242;28;20034;-81
2020/12/25 00:37:48;;;;;;;0.70;0.65;;;2.30;99.90;;;;;;5022363;28;20092;-80
2020/12/25 00:40:14;;;;;;;0.77;0.70;;;2.30;99.90;;;;;;5014401;28;20041;-80
2020/12/25 00:42:39;;;;;;;1.58;0.73;;;2.20;99.90;;;;;;5009541;28;20029;-79
2020/12/25 00:45:05;;;;;;;1.35;1.10;;;2.30;99.90;;;;;;5023895;28;20046;-81
2020/12/25 00:47:30;;;;;;;1.40;1.10;;;2.20;99.90;;;;;;5022899;28;20044;-81
2020/12/25 00:49:56;;;;;;;0.90;0.82;;;2.30;99.90;;;;;;4998409;28;20400;-80
2020/12/25 00:52:24;;;;;;;1.55;1.05;;;2.30;99.90;;;;;;5010372;28;20420;-81
2020/12/25 00:54:50;;;;;;;1.08;0.90;;;2.30;99.90;;;;;;5006123;28;20033;-79
2020/12/25 00:57:15;;;;;;;1.20;1.00;;;2.30;99.90;;;;;;5013543;28;20045;-80
2020/12/25 00:59:41;;;;;;;2.45;1.30;;;2.30;99.90;;;;;;5012630;28;20085;-81
2020/12/25 01:02:06;;;;;;;2.40;1.42;;;2.20;99.90;;;;;;4996730;28;20029;-79
2020/12/25 01:04:32;;;;;;;1.33;1.00;;;2.20;99.90;;;;;;5029059;28;20136;-79
2020/12/25 01:06:57;;;;;;;2.80;1.60;;;2.20;99.90;;;;;;5038439;28;20025;-78
2020/12/25 01:09:24;;;;;;;1.73;1.40;;;2.20;99.90;;;;;;5023359;28;20042;-79
2020/12/25 01:11:50;;;;;;;1.75;1.40;;;2.20;99.90;;;;;;5028137;28;20033;-79
2020/12/25 01:14:16;;;;;;;2.30;1.90;;;2.20;99.90;;;;;;5035971;28;20149;-80
2020/12/25 01:16:42;;;;;;;2.58;1.58;;;2.20;99.90;;;;;;5008177;28;20137;-79
2020/12/25 01:19:07;;;;;;;2.45;1.60;;;2.10;99.90;;;;;;5025305;28;20025;-80
2020/12/25 01:21:33;;;;;;;2.25;1.70;;;2.10;99.90;;;;;;5019151;28;20032;-79
2020/12/25 01:23:58;;;;;;;6.70;1.90;;;2.10;99.90;;;;;;5010071;28;20056;-81
2020/12/25 01:26:24;;;;;;;4.10;1.90;;;2.20;99.90;;;;;;5012856;28;20236;-81
2020/12/25 01:28:50;;;;;;;2.75;1.88;;;2.20;99.90;;;;;;5014373;28;20049;-82
2020/12/25 01:31:15;;;;;;;2.60;2.00;;;2.20;99.90;;;;;;5013568;28;20086;-81
2020/12/25 01:33:41;;;;;;;2.92;1.98;;;2.30;99.90;;;;;;5013761;28;20045;-81
2020/12/25 01:36:06;;;;;;;7.40;1.85;;;2.30;99.90;;;;;;5010886;28;20599;-82
2020/12/25 01:38:32;;;;;;;6.32;1.88;;;2.30;99.90;;;;;;4999186;28;20074;-82
2020/12/25 01:40:58;;;;;;;2.90;1.75;;;2.40;99.90;;;;;;5018447;28;20038;-81
2020/12/25 01:43:24;;;;;;;2.47;1.58;;;2.40;99.90;;;;;;5017982;28;20700;-82
2020/12/25 01:45:50;;;;;;;3.28;2.05;;;2.50;99.90;;;;;;5013857;28;20100;-81
2020/12/25 01:48:17;;;;;;;3.70;2.17;;;2.50;99.90;;;;;;5014103;28;20044;-81
2020/12/25 01:50:42;;;;;;;4.25;2.00;;;2.50;99.90;;;;;;5017488;28;20042;-81
2020/12/25 01:53:10;;;;;;;3.13;1.98;;;2.60;99.90;;;;;;5012361;28;20036;-82
2020/12/25 01:55:37;;;;;;;2.88;2.13;;;2.60;99.90;;;;;;5005269;28;20049;-81
2020/12/25 01:58:03;;;;;;;5.57;2.45;;;2.60;99.90;;;;;;5012145;28;20029;-81
2020/12/25 02:00:32;;;;;;;4.53;2.60;;;2.70;99.90;;;;;;5010938;28;20053;-81
2020/12/25 02:02:58;;;;;;;4.63;2.80;;;2.70;99.90;;;;;;4998153;28;20489;-80
2020/12/25 02:05:23;;;;;;;4.75;3.47;;;2.70;99.90;;;;;;5015901;28;20025;-81
2020/12/25 02:07:49;;;;;;;4.97;3.13;;;2.70;99.90;;;;;;5012450;28;20097;-81
2020/12/25 02:10:16;;;;;;;5.38;3.35;;;2.80;99.90;;;;;;5014568;28;20037;-82
2020/12/25 02:12:42;;;;;;;5.70;4.07;;;2.80;99.90;;;;;;5013839;28;20069;-81
2020/12/25 02:15:08;;;;;;;8.60;4.15;;;2.80;99.90;;;;;;5015683;28;20060;-82
2020/12/25 02:17:34;;;;;;;6.43;3.05;;;2.80;99.90;;;;;;5016422;28;20091;-82
2020/12/25 02:20:03;;;;;;;10.00;4.22;;;2.80;99.90;;;;;;5003435;28;20045;-81
2020/12/25 02:22:32;;;;;;;12.35;4.20;;;2.80;99.90;;;;;;5013331;28;20109;-82
2020/12/25 02:24:57;;;;;;;8.43;4.82;;;2.90;99.90;;;;;;4993520;28;20034;-82
2020/12/25 02:27:23;;;;;;;13.70;5.22;;;2.90;99.90;;;;;;5003160;28;20576;-82
2020/12/25 02:29:48;;;;;;;7.28;4.40;;;2.90;99.90;;;;;;5009845;28;20046;-84
2020/12/25 02:32:14;;;;;;;10.45;5.43;;;2.90;99.90;;;;;;5016577;28;20437;-82
2020/12/25 02:34:39;;;;;;;9.85;3.92;;;2.90;99.90;;;;;;5015352;28;20658;-81
2020/12/25 02:37:05;;;;;;;8.52;4.85;;;2.90;99.90;;;;;;5014048;28;20084;-83
2020/12/25 02:39:30;;;;;;;13.02;5.78;;;2.90;99.90;;;;;;5010336;28;20811;-83
2020/12/25 02:41:56;;;;;;;11.48;5.05;;;2.90;99.90;;;;;;4995926;28;20481;-83
2020/12/25 02:44:21;;;;;;;9.20;4.63;;;2.90;99.90;;;;;;5014074;28;20033;-83
2020/12/25 02:46:47;;;;;;;9.38;5.30;;;3.00;99.90;;;;;;5021280;28;20031;-82
2020/12/25 02:49:13;;;;;;;13.23;5.97;;;2.90;99.90;;;;;;4998438;28;20042;-82
2020/12/25 02:51:38;;;;;;;9.85;5.10;;;3.00;99.90;;;;;;5020092;28;20381;-82
2020/12/25 02:54:04;;;;;;;11.70;5.78;;;3.00;99.90;;;;;;5018918;28;20413;-81
2020/12/25 02:56:29;;;;;;;13.30;5.32;;;2.90;99.90;;;;;;5013093;28;20116;-82
2020/12/25 02:58:55;;;;;;;9.10;5.80;;;3.00;99.90;;;;;;5017089;28;20100;-83
2020/12/25 03:01:20;;;;;;;9.65;4.97;;;3.00;99.90;;;;;;5021211;28;20034;-83
2020/12/25 03:03:46;;;;;;;16.42;6.60;;;3.00;99.90;;;;;;5022268;28;20032;-83
2020/12/25 03:06:11;;;;;;;9.60;5.50;;;3.00;99.90;;;;;;5019915;28;20081;-82
2020/12/25 03:08:37;;;;;;;10.23;5.60;;;3.00;99.90;;;;;;5017600;28;20056;-82
2020/12/25 03:11:04;;;;;;;12.02;6.10;;;3.00;99.90;;;;;;4997147;28;20107;-82
2020/12/25 03:13:30;;;;;;;6.85;4.53;;;3.00;99.90;;;;;;4994951;28;20934;-84
2020/12/25 03:15:55;;;;;;;8.23;4.47;;;3.00;99.90;;;;;;5019736;28;20098;-82
2020/12/25 03:18:21;;;;;;;10.00;5.05;;;3.00;99.90;;;;;;5019328;28;20125;-84
2020/12/25 03:20:47;;;;;;;9.50;5.57;;;3.00;99.90;;;;;;5034513;28;20034;-83
2020/12/25 03:23:13;;;;;;;11.77;5.65;;;3.00;99.90;;;;;;5037793;28;20037;-83
2020/12/25 03:25:39;;;;;;;8.57;5.57;;;3.00;99.90;;;;;;5038542;28;20103;-82
2020/12/25 03:28:05;;;;;;;11.52;4.95;;;3.00;99.90;;;;;;5031418;28;20187;-82
2020/12/25 03:30:31;;;;;;;10.90;6.22;;;3.00;99.90;;;;;;5038791;28;20037;-82
2020/12/25 03:32:56;;;;;;;11.10;6.03;;;3.00;99.90;;;;;;5035720;28;20268;-83
2020/12/25 03:35:22;;;;;;;9.23;5.50;;;3.00;99.90;;;;;;5037711;28;20063;-84
2020/12/25 03:37:47;;;;;;;8.45;5.20;;;3.10;99.90;;;;;;5034798;28;20087;-84
2020/12/25 03:40:13;;;;;;;11.93;6.15;;;3.10;99.90;;;;;;5038427;28;20091;-83
2020/12/25 03:42:38;;;;;;;11.15;6.18;;;3.10;99.90;;;;;;5020088;28;20056;-81
2020/12/25 03:45:05;;;;;;;12.52;5.68;;;3.00;99.90;;;;;;5017515;28;20055;-84
2020/12/25 03:47:31;;;;;;;11.68;5.03;;;3.10;99.90;;;;;;5036010;28;20030;-84
2020/12/25 03:49:56;;;;;;;17.48;5.93;;;3.10;99.90;;;;;;5036025;28;20034;-82
2020/12/25 03:52:22;;;;;;;11.45;6.38;;;3.10;99.90;;;;;;5011239;28;20030;-84
2020/12/25 03:54:48;;;;;;;10.52;5.75;;;3.10;99.90;;;;;;5011444;28;20090;-82
2020/12/25 03:57:13;;;;;;;8.40;5.78;;;3.10;99.90;;;;;;5024702;28;20081;-82
2020/12/25 03:59:39;;;;;;;11.85;5.93;;;3.10;99.90;;;;;;5033760;28;20050;-83
2020/12/25 04:02:05;;;;;;;9.68;5.40;;;3.10;99.90;;;;;;5033007;28;20046;-82
2020/12/25 04:04:30;;;;;;;11.05;6.13;;;3.10;99.90;;;;;;5037455;28;20034;-82
2020/12/25 04:06:56;;;;;;;11.48;6.20;;;3.00;99.90;;;;;;5037935;28;20105;-83
2020/12/25 04:09:21;;;;;;;10.35;5.53;;;3.10;99.90;;;;;;5025045;28;20033;-83
2020/12/25 04:11:50;;;;;;;10.07;6.00;;;3.10;99.90;;;;;;5005860;28;20558;-83
2020/12/25 04:14:19;;;;;;;12.75;6.60;;;3.10;99.90;;;;;;5002476;28;20476;-83
2020/12/25 04:16:45;;;;;;;13.52;6.13;;;3.20;99.90;;;;;;5028560;28;20044;-83
2020/12/25 04:19:11;;;;;;;10.48;6.18;;;3.20;99.90;;;;;;5036625;28;20029;-82
2020/12/25 04:21:38;;;;;;;13.13;6.40;;;3.10;99.90;;;;;;5034240;28;20029;-82
2020/12/25 04:24:04;;;;;;;15.45;5.70;;;3.20;99.90;;;;;;5038436;28;20073;-83
2020/12/25 04:26:29;;;;;;;12.07;5.90;;;3.10;99.90;;;;;;5032382;28;20468;-82
2020/12/25 04:28:55;;;;;;;8.85;5.72;;;3.20;99.90;;;;;;5019242;28;20064;-82
2020/12/25 04:31:24;;;;;;;8.52;4.95;;;3.20;99.90;;;;;;5021641;28;20037;-83
2020/12/25 04:33:50;;;;;;;10.35;6.20;;;3.10;99.90;;;;;;5024614;28;20034;-83
2020/12/25 04:36:16;;;;;;;11.85;6.28;;;3.10;99.90;;;;;;5031295;28;20864;-82
2020/12/25 04:38:41;;;;;;;15.73;6.57;;;3.10;99.90;;;;;;5024963;28;20061;-82
2020/12/25 04:41:07;;;;;;;12.40;5.55;;;3.10;99.90;;;;;;5031412;28;20093;-82
2020/12/25 04:43:35;;;;;;;7.70;4.97;;;3.10;99.90;;;;;;5029840;28;20141;-83
2020/12/25 04:46:02;;;;;;;10.95;6.13;;;3.10;99.90;;;;;;5034560;28;20134;-82
2020/12/25 04:48:27;;;;;;;8.48;4.80;;;3.10;99.90;;;;;;5032148;28;20053;-82
2020/12/25 04:50:53;;;;;;;8.18;5.25;;;3.00;99.90;;;;;;5031410;28;20048;-82
2020/12/25 04:53:20;;;;;;;8.27;5.28;;;3.00;99.90;;;;;;5027458;28;20025;-83
2020/12/25 04:55:45;;;;;;;10.00;6.13;;;3.10;99.90;;;;;;5028754;28;20037;-82
2020/12/25 04:58:11;;;;;;;9.65;5.47;;;3.00;99.90;;;;;;5022838;28;20061;-83
2020/12/25 05:00:36;;;;;;;10.85;5.60;;;3.00;99.90;;;;;;5022773;28;20045;-81
2020/12/25 05:03:06;;;;;;;14.68;5.85;;;3.00;99.90;;;;;;5026781;28;20038;-83
2020/12/25 05:05:32;;;;;;;9.93;5.88;;;3.00;99.90;;;;;;5028974;28;20037;-81
2020/12/25 05:07:59;;;;;;;9.48;4.97;;;3.00;99.90;;;;;;5026454;28;20040;-83
2020/12/25 05:10:25;;;;;;;12.15;6.32;;;3.00;99.90;;;;;;5025145;28;20037;-81
2020/12/25 05:12:51;;;;;;;10.32;5.00;;;2.90;99.90;;;;;;5005482;28;20034;-81
2020/12/25 05:15:17;;;;;;;8.13;5.25;;;3.00;99.90;;;;;;5023638;28;20137;-81
2020/12/25 05:17:43;;;;;;;9.93;5.13;;;3.00;99.90;;;;;;5025482;28;20042;-81
2020/12/25 05:20:09;;;;;;;8.68;5.60;;;2.90;99.90;;;;;;5029867;28;20127;-81
2020/12/25 05:22:35;;;;;;;9.85;5.35;;;3.00;99.90;;;;;;5032542;28;20484;-82
2020/12/25 05:25:03;;;;;;;9.25;5.72;;;3.00;99.90;;;;;;5020438;28;20060;-83
2020/12/25 05:27:32;;;;;;;10.77;5.82;;;3.00;99.90;;;;;;5021113;28;20092;-82
2020/12/25 05:30:04;;;;;;;10.77;5.07;;;2.90;99.90;;;;;;5024074;28;20554;-82
2020/12/25 05:32:31;;;;;;;11.07;7.00;;;2.90;99.90;;;;;;5020371;28;20028;-82
2020/12/25 05:34:58;;;;;;;9.10;4.90;;;2.90;99.90;;;;;;5015629;28;20030;-83
2020/12/25 05:37:36;;;;;;;10.95;5.78;;;2.90;99.90;;;;;;5009479;28;20030;-82
2020/12/25 05:40:06;;;;;;;14.07;6.28;;;2.90;99.90;;;;;;5005809;28;20061;-82
2020/12/25 05:42:45;;;;;;;12.57;6.90;;;3.00;99.90;;;;;;5016641;28;20026;-83
2020/12/25 05:45:11;;;;;;;13.43;6.78;;;2.90;99.90;;;;;;4998022;28;20123;-82
2020/12/25 05:47:37;;;;;;;11.52;6.82;;;2.90;99.90;;;;;;5014242;28;20126;-83
2020/12/25 05:50:06;;;;;;;11.82;6.47;;;3.00;99.90;;;;;;5017179;28;20130;-82
2020/12/25 05:52:31;;;;;;;10.95;6.20;;;3.00;99.90;;;;;;5021895;28;20029;-82
2020/12/25 05:54:59;;;;;;;16.95;7.25;;;3.00;99.90;;;;;;5020718;28;20026;-82
2020/12/25 05:57:29;;;;;;;9.23;6.18;;;3.00;99.90;;;;;;5015749;28;20054;-83
2020/12/25 05:59:59;;;;;;;14.75;6.72;;;3.00;99.90;;;;;;5015005;28;20037;-82
2020/12/25 06:02:26;;;;;;;10.60;6.13;;;3.00;99.90;;;;;;5019179;28;20041;-83
2020/12/25 06:04:52;;;;;;;13.48;6.68;;;3.00;99.90;;;;;;5017654;28;20037;-82
2020/12/25 06:07:21;;;;;;;13.88;6.95;;;3.00;99.90;;;;;;5016900;28;20041;-82
2020/12/25 06:09:56;;;;;;;14.55;7.25;;;2.90;99.90;;;;;;4998412;28;20045;-83
2020/12/25 06:12:36;;;;;;;16.15;7.72;;;2.90;99.90;;;;;;5017596;28;20052;-82
2020/12/25 06:15:02;;;;;;;13.80;7.18;;;2.90;99.90;;;;;;5022160;28;20176;-83
2020/12/25 06:17:29;;;;;;;13.23;7.72;;;2.90;99.90;;;;;;5033148;28;20030;-82
2020/12/25 06:20:03;;;;;;;13.38;7.15;;;2.90;99.90;;;;;;5015075;28;20058;-82
2020/12/25 06:22:35;;;;;;;12.52;7.63;;;2.90;99.90;;;;;;5008001;28;20091;-82
2020/12/25 06:25:02;;;;;;;14.70;7.30;;;2.90;99.90;;;;;;5017111;28;20030;-82
2020/12/25 06:27:28;;;;;;;14.73;7.45;;;2.80;99.90;;;;;;5017558;28;20034;-82
2020/12/25 06:29:55;;;;;;;13.60;7.60;;;2.90;99.90;;;;;;5013807;28;20034;-82
2020/12/25 06:32:22;;;;;;;15.35;8.40;;;2.80;99.90;;;;;;5013235;28;20034;-82
2020/12/25 06:34:51;;;;;;;18.83;8.82;;;2.90;99.90;;;;;;5013930;28;20062;-81
2020/12/25 06:37:17;;;;;;;14.65;7.85;;;2.90;99.90;;;;;;5013726;28;20133;-82
2020/12/25 06:39:55;;;;;;;15.63;8.55;;;2.90;99.90;;;;;;5013324;28;20038;-83
2020/12/25 06:42:37;;;;;;;15.65;8.20;;;2.90;99.90;;;;;;5012984;28;20037;-82
2020/12/25 06:45:10;;;;;;;14.32;8.13;;;2.80;99.90;;;;;;4997692;28;20041;-82
2020/12/25 06:47:38;;;;;;;13.98;6.65;;;2.80;99.90;;;;;;4992670;28;20034;-82
2020/12/25 06:50:08;;;;;;;13.80;8.00;;;2.80;99.90;;;;;;5007988;28;20072;-81
2020/12/25 06:52:54;;;;;;;16.38;7.72;;;2.60;99.90;;;;;;5010991;28;20065;-81
2020/12/25 06:55:24;;;;;;;14.07;7.40;;;2.70;99.90;;;;;;5000344;28;20107;-81
2020/12/25 06:57:53;;;;;;;13.45;7.28;;;2.60;99.90;;;;;;5012721;28;20136;-80
2020/12/25 07:00:20;;;;;;;15.25;8.02;;;2.50;99.90;;;;;;4992576;28;20126;-80
2020/12/25 07:02:47;;;;;;;13.55;7.25;;;2.60;99.90;;;;;;5017909;28;20037;-80
2020/12/25 07:05:12;;;;;;;13.15;7.15;;;2.50;99.90;;;;;;5022232;28;20040;-81
2020/12/25 07:07:38;;;;;;;13.43;6.72;;;2.50;99.90;;;;;;5016495;28;20045;-81
2020/12/25 07:10:07;;;;;;;11.68;5.97;;;2.50;99.90;;;;;;5013727;28;20048;-81
2020/12/25 07:12:33;;;;;;;11.68;5.22;;;2.40;99.90;;;;;;4996348;28;20025;-82
2020/12/25 07:14:58;;;;;;;10.18;5.75;;;2.40;99.90;;;;;;5012302;28;20034;-81
2020/12/25 07:17:24;;;;;;;9.95;5.63;;;2.40;99.90;;;;;;5012564;28;20076;-81
2020/12/25 07:19:49;;;;;;;11.52;6.38;;;2.40;99.90;;;;;;5012627;28;20076;-81
2020/12/25 07:22:15;;;;;;;13.10;6.03;;;2.50;99.90;;;;;;5015098;28;20042;-81
2020/12/25 07:24:41;;;;;;;11.43;6.13;;;2.40;99.90;;;;;;5013598;28;20065;-81
2020/12/25 07:27:09;;;;;;;12.80;6.60;;;2.50;99.90;;;;;;5013462;28;20385;-82
2020/12/25 07:29:38;;;;;;;11.48;6.53;;;2.40;99.90;;;;;;5013493;28;20548;-81
2020/12/25 07:32:04;;;;;;;10.02;5.50;;;2.50;99.90;;;;;;5004108;28;20049;-82
2020/12/25 07:34:30;;;;;;;10.05;5.82;;;2.50;99.90;;;;;;4995452;28;20038;-82
2020/12/25 07:36:57;;;;;;;10.65;6.07;;;2.40;99.90;;;;;;5012076;28;20109;-83
2020/12/25 07:39:24;;;;;;;10.05;6.25;;;2.40;99.90;;;;;;5015046;28;20041;-82
2020/12/25 07:41:50;;;;;;;14.73;6.47;;;2.40;99.90;;;;;;5007298;28;20029;-82
2020/12/25 07:44:17;;;;;;;10.80;5.85;;;2.50;99.90;;;;;;5012876;28;20582;-82
2020/12/25 07:46:43;;;;;;;10.13;5.65;;;2.50;99.90;;;;;;5012193;28;20095;-82
2020/12/25 07:49:09;;;;;;;8.88;5.28;;;2.50;99.90;;;;;;5017980;28;20037;-82
2020/12/25 07:51:35;;;;;;;11.10;5.85;;;2.40;99.90;;;;;;5022433;28;20051;-82
2020/12/25 07:54:03;;;;;;;10.90;5.70;;;2.50;99.90;;;;;;5018528;28;20038;-82
2020/12/25 07:56:33;;;;;;;9.38;6.22;;;2.50;99.90;;;;;;5015332;28;20087;-83
2020/12/25 07:58:59;;;;;;;11.13;6.00;;;2.50;99.90;;;;;;4995087;28;20041;-83
2020/12/25 08:01:28;;;;;;;9.75;5.22;;;2.50;99.90;;;;;;5013662;28;20037;-83
2020/12/25 08:03:56;;;;;;;8.10;5.30;;;2.60;99.90;;;;;;5017287;28;20556;-83
2020/12/25 08:06:23;;;;;;;8.23;5.38;;;2.60;99.90;;;;;;5011161;28;20030;-81
2020/12/25 08:08:52;;;;;;;11.52;6.40;;;2.60;99.90;;;;;;4997105;28;20052;-81
2020/12/25 08:11:20;;;;;;;10.40;5.78;;;2.50;99.90;;;;;;5017666;28;20182;-83
2020/12/25 08:13:48;;;;;;;11.35;6.03;;;2.50;99.90;;;;;;5012998;28;20101;-83
2020/12/25 08:16:14;;;;;;;11.98;6.72;;;2.50;99.90;;;;;;5014744;28;20474;-80
2020/12/25 08:18:40;;;;;;;14.20;5.97;;;2.50;99.90;;;;;;4998396;28;20488;-83
2020/12/25 08:21:06;;;;;;;12.70;7.07;;;2.60;99.90;;;;;;5013249;28;20061;-83
2020/12/25 08:23:35;;;;;;;15.05;8.40;;;2.60;99.90;;;;;;5017750;28;20124;-83
2020/12/25 08:26:02;;;;;;;12.68;7.68;;;2.40;99.90;;;;;;5015331;28;20668;-81
2020/12/25 08:28:31;;;;;;;13.88;7.90;;;2.40;99.90;;;;;;5006845;28;20037;-83
2020/12/25 08:31:11;;;;;;;15.43;8.32;;;2.50;99.90;;;;;;5015601;28;20037;-82
2020/12/25 08:33:37;;;;;;;13.35;7.82;;;2.50;99.90;;;;;;5001044;28;20068;-82
2020/12/25 08:36:11;;;;;;;18.02;9.35;;;2.60;99.90;;;;;;4999552;28;20042;-81
2020/12/25 08:38:43;;;;;;;17.77;9.90;;;2.60;99.90;;;;;;5016386;28;20088;-83
2020/12/25 08:41:10;;;;;;;17.17;9.57;;;2.70;99.90;;;;;;5016606;28;20042;-82
2020/12/25 08:43:35;;;;;;;19.73;10.50;;;2.70;99.90;;;;;;5004813;28;20034;-83
2020/12/25 08:46:03;;;;;;;21.45;10.35;;;2.80;99.90;;;;;;5012860;28;20104;-82
2020/12/25 08:48:32;;;;;;;27.08;10.32;;;2.90;99.90;;;;;;5008891;28;20105;-83
2020/12/25 08:51:08;;;;;;;27.15;10.65;;;2.80;99.90;;;;;;5011257;28;20041;-83
2020/12/25 08:53:34;;;;;;;22.20;11.00;;;2.90;99.90;;;;;;5012716;28;20499;-83
2020/12/25 08:56:16;;;;;;;25.60;11.02;;;3.00;99.90;;;;;;4998313;28;20034;-83
2020/12/25 08:58:57;;;;;;;22.80;10.68;;;3.10;99.90;;;;;;5015924;28;20097;-83
2020/12/25 09:01:23;;;;;;;23.88;11.38;;;3.00;99.90;;;;;;5017227;28;20065;-83
2020/12/25 09:03:49;;;;;;;23.73;11.93;;;3.10;99.90;;;;;;5017968;28;20069;-84
2020/12/25 09:06:14;;;;;;;28.27;12.48;;;3.10;99.90;;;;;;5019873;28;20567;-83
2020/12/25 09:08:40;;;;;;;27.85;12.45;;;3.10;99.90;;;;;;5016311;28;20065;-83
2020/12/25 09:11:14;;;;;;;24.13;11.68;;;3.10;99.90;;;;;;5012329;28;20049;-83
2020/12/25 09:13:40;;;;;;;25.70;11.00;;;3.20;99.90;;;;;;4998161;28;20042;-83
2020/12/25 09:16:06;;;;;;;21.65;11.45;;;3.20;99.90;;;;;;5019746;28;20187;-83
2020/12/25 09:18:33;;;;;;;27.75;11.35;;;3.30;99.90;;;;;;4996938;28;20038;-83
2020/12/25 09:21:00;;;;;;;35.20;10.90;;;3.30;99.90;;;;;;5015752;28;20693;-83
2020/12/25 09:23:26;;;;;;;21.55;11.05;;;3.30;99.90;;;;;;5014921;28;20065;-83
2020/12/25 09:25:52;;;;;;;20.75;10.93;;;3.30;99.90;;;;;;5017771;28;20034;-83
2020/12/25 09:28:17;;;;;;;29.10;11.38;;;3.30;99.90;;;;;;5017372;28;20087;-83
2020/12/25 09:30:43;;;;;;;23.23;12.45;;;3.30;99.90;;;;;;5021504;28;20084;-81
2020/12/25 09:33:09;;;;;;;20.42;11.15;;;3.40;99.90;;;;;;5020211;28;20033;-81
2020/12/25 09:35:34;;;;;;;25.15;11.18;;;3.30;99.90;;;;;;5017835;28;20061;-81
2020/12/25 09:38:00;;;;;;;26.10;11.98;;;3.40;99.90;;;;;;5023736;28;20044;-81
2020/12/25 09:40:25;;;;;;;29.50;11.40;;;3.40;99.90;;;;;;5015565;28;20026;-81
2020/12/25 09:42:51;;;;;;;23.58;11.25;;;3.50;99.90;;;;;;5005605;28;20037;-81
2020/12/25 09:45:16;;;;;;;18.75;10.10;;;3.50;99.90;;;;;;5017086;28;20053;-84
2020/12/25 09:47:42;;;;;;;22.23;11.02;;;3.50;99.90;;;;;;5016791;28;20042;-83
2020/12/25 09:50:08;;;;;;;23.52;12.60;;;3.60;99.90;;;;;;5015466;28;20037;-81
2020/12/25 09:52:36;;;;;;;23.48;9.65;;;3.70;99.90;;;;;;5019833;28;20091;-81
2020/12/25 09:55:03;;;;;;;23.58;11.02;;;3.70;99.90;;;;;;5016459;28;20057;-83
2020/12/25 09:57:29;;;;;;;22.25;10.38;;;3.70;99.90;;;;;;5016378;28;20621;-83
2020/12/25 09:59:55;;;;;;;23.60;10.93;;;3.70;99.90;;;;;;5015197;28;20046;-81
2020/12/25 10:02:21;;;;;;;20.00;9.70;;;3.80;99.90;;;;;;5015402;28;20041;-80
2020/12/25 10:04:47;;;;;;;22.58;9.38;;;3.80;99.90;;;;;;5007377;28;20034;-80
2020/12/25 10:07:12;;;;;;;17.45;9.32;;;3.90;99.90;;;;;;5027016;28;20034;-83
2020/12/25 10:09:38;;;;;;;18.23;9.85;;;3.90;99.90;;;;;;5011073;28;20045;-82
2020/12/25 10:12:04;;;;;;;16.67;8.98;;;4.00;99.90;;;;;;4975988;28;20079;-83
2020/12/25 10:14:30;;;;;;;15.38;7.93;;;4.10;99.90;;;;;;4990110;28;20038;-82
2020/12/25 10:16:55;;;;;;;16.92;8.65;;;3.90;99.90;;;;;;5014604;28;20149;-83
2020/12/25 10:19:21;;;;;;;14.10;6.60;;;3.90;99.90;;;;;;5010927;28;20033;-83
2020/12/25 10:21:49;;;;;;;17.10;7.47;;;4.00;99.90;;;;;;4994137;28;20037;-83
2020/12/25 10:24:15;;;;;;;15.27;8.00;;;4.00;99.90;;;;;;4987119;28;20037;-83
2020/12/25 10:26:40;;;;;;;16.58;7.57;;;4.10;99.90;;;;;;4997171;28;20048;-83
2020/12/25 10:29:06;;;;;;;14.77;8.05;;;4.10;99.90;;;;;;5004911;28;20056;-82
2020/12/25 10:31:32;;;;;;;12.43;7.10;;;4.20;99.90;;;;;;5013258;28;20045;-82
2020/12/25 10:33:58;;;;;;;16.13;8.00;;;4.20;99.90;;;;;;5028019;28;20041;-80
2020/12/25 10:36:24;;;;;;;11.63;6.53;;;4.10;99.90;;;;;;4996418;28;20231;-80
2020/12/25 10:38:51;;;;;;;13.48;7.45;;;4.00;99.90;;;;;;5003550;28;20034;-83
2020/12/25 10:41:16;;;;;;;16.52;7.60;;;3.80;99.90;;;;;;5008826;28;20049;-82
2020/12/25 10:43:42;;;;;;;14.77;7.43;;;3.80;99.90;;;;;;5021432;28;20038;-81
2020/12/25 10:46:07;;;;;;;19.05;7.35;;;4.00;99.90;;;;;;5023845;28;20073;-81
2020/12/25 10:48:33;;;;;;;16.15;7.80;;;3.90;99.90;;;;;;5022981;28;20092;-82
2020/12/25 10:50:59;;;;;;;15.55;7.55;;;3.90;99.90;;;;;;5010431;28;20041;-84
2020/12/25 10:53:24;;;;;;;15.90;7.32;;;4.00;99.90;;;;;;5013000;28;20033;-81
2020/12/25 10:55:50;;;;;;;16.45;7.93;;;3.90;99.90;;;;;;5031896;28;20057;-81
2020/12/25 10:58:16;;;;;;;21.45;8.20;;;4.00;99.90;;;;;;5028283;28;20104;-80
2020/12/25 11:00:41;;;;;;;12.60;6.35;;;4.00;99.90;;;;;;5017902;28;20038;-84
2020/12/25 11:03:07;;;;;;;15.00;6.90;;;4.00;99.90;;;;;;5018897;28;20041;-81
2020/12/25 11:05:32;;;;;;;11.15;6.57;;;4.00;99.90;;;;;;5019058;28;20046;-81
2020/12/25 11:07:58;;;;;;;16.73;7.50;;;3.90;99.90;;;;;;5017407;28;20121;-81
2020/12/25 11:10:25;;;;;;;9.95;5.57;;;3.90;99.90;;;;;;5017954;28;20034;-81
2020/12/25 11:12:50;;;;;;;14.30;7.55;;;3.80;99.90;;;;;;5023811;28;20133;-81
2020/12/25 11:15:16;;;;;;;14.38;6.25;;;3.80;99.90;;;;;;5016553;28;20189;-80
2020/12/25 11:17:42;;;;;;;12.20;6.85;;;3.90;99.90;;;;;;5029021;28;20928;-81
2020/12/25 11:20:07;;;;;;;13.40;7.05;;;3.90;99.90;;;;;;5015888;28;20089;-80
2020/12/25 11:22:32;;;;;;;12.02;5.43;;;3.90;99.90;;;;;;5031739;28;20939;-80
2020/12/25 11:24:58;;;;;;;16.65;6.10;;;3.70;99.90;;;;;;5035593;28;20041;-81
2020/12/25 11:27:24;;;;;;;17.08;5.95;;;3.70;99.90;;;;;;5011783;28;20029;-80
2020/12/25 11:29:49;;;;;;;14.18;6.72;;;3.80;99.90;;;;;;5029096;28;20095;-81
2020/12/25 11:32:15;;;;;;;21.00;7.28;;;3.70;99.90;;;;;;5035629;28;20030;-80
2020/12/25 11:34:40;;;;;;;13.32;6.38;;;3.70;99.90;;;;;;5031467;28;20046;-80
2020/12/25 11:37:06;;;;;;;14.32;6.68;;;3.80;99.90;;;;;;5034287;28;20095;-80
2020/12/25 11:39:31;;;;;;;12.77;5.93;;;3.80;99.90;;;;;;5028194;28;20489;-80
2020/12/25 11:41:57;;;;;;;10.93;5.57;;;3.80;99.90;;;;;;5031203;28;20030;-80
2020/12/25 11:44:23;;;;;;;11.18;6.20;;;3.70;99.90;;;;;;5030798;28;20045;-82
2020/12/25 11:46:48;;;;;;;11.02;5.55;;;3.80;99.90;;;;;;5011283;28;20034;-80
2020/12/25 11:49:14;;;;;;;9.73;5.72;;;3.80;99.90;;;;;;5022832;28;20148;-81
2020/12/25 11:51:39;;;;;;;12.70;4.85;;;3.90;99.90;;;;;;5026712;28;20086;-80
2020/12/25 11:54:05;;;;;;;12.25;6.25;;;3.90;99.90;;;;;;5021559;28;20049;-83
2020/12/25 11:56:30;;;;;;;11.93;5.80;;;3.80;99.90;;;;;;5030028;28;20022;-82
2020/12/25 11:59:00;;;;;;;10.40;5.35;;;3.90;99.90;;;;;;5027093;28;20048;-82
2020/12/25 12:01:26;;;;;;;10.50;5.10;;;3.90;99.90;;;;;;5021851;28;20061;-82
2020/12/25 12:03:52;;;;;;;11.00;5.65;;;3.80;99.90;;;;;;5013612;28;20041;-82
2020/12/25 12:06:19;;;;;;;8.18;5.05;;;3.90;99.90;;;;;;5035829;28;20037;-82
2020/12/25 12:08:45;;;;;;;12.32;6.13;;;3.80;99.90;;;;;;5030857;28;20068;-82
2020/12/25 12:11:11;;;;;;;12.35;5.18;;;3.70;99.90;;;;;;5024125;28;20125;-81
2020/12/25 12:13:36;;;;;;;7.97;4.72;;;3.70;99.90;;;;;;5012554;28;20049;-82
2020/12/25 12:16:02;;;;;;;12.63;4.95;;;3.70;99.90;;;;;;5027916;28;20037;-82
2020/12/25 12:18:27;;;;;;;9.07;4.78;;;3.60;99.90;;;;;;5029920;28;20049;-81
2020/12/25 12:20:53;;;;;;;11.77;4.85;;;3.60;99.90;;;;;;5023104;28;20095;-83
2020/12/25 12:23:19;;;;;;;13.60;4.50;;;3.60;99.90;;;;;;5025525;28;20485;-81
2020/12/25 12:25:44;;;;;;;8.02;4.88;;;3.60;99.90;;;;;;5023490;28;20417;-80
2020/12/25 12:28:10;;;;;;;11.32;5.70;;;3.50;99.90;;;;;;5026745;28;20558;-81
2020/12/25 12:30:35;;;;;;;8.77;4.13;;;3.60;99.90;;;;;;5023600;28;20432;-82
2020/12/25 12:33:01;;;;;;;13.15;6.20;;;3.40;99.90;;;;;;5027045;28;20301;-82
2020/12/25 12:35:26;;;;;;;11.77;6.25;;;3.50;99.90;;;;;;5018368;28;20021;-81
2020/12/25 12:37:52;;;;;;;10.32;5.35;;;3.50;99.90;;;;;;5015287;28;20512;-83
2020/12/25 12:40:18;;;;;;;11.05;4.55;;;3.60;99.90;;;;;;5020448;28;20386;-82
2020/12/25 12:42:44;;;;;;;10.10;4.88;;;3.60;99.90;;;;;;5022671;28;20068;-83
2020/12/25 12:45:09;;;;;;;11.35;4.50;;;3.50;99.90;;;;;;5024617;28;20660;-81